Youngstown, OH (44515)

2:32 PM EDT on March 27, 2017 (GMT -0400)
Rocky Ridge | | Change Station

Elev 1010 ft 41.09 °N, 80.70 °W | Updated 12 seconds ago

Overcast
Overcast
62.2 °F
Feels Like 62.2 °F
N
1.8
Wind Variable Wind from WSW
Gusts 2.5 mph

Today
High -- | Low -- °F
--% Chance of Precip.
Yesterday
High -- | Low -- °F
Precip. -- in
Pressure 29.96 in
Visibility 10.0 miles
Clouds Mostly Cloudy 2700 ft
Mostly Cloudy 5000 ft
Overcast 22000 ft
Dew Point 23 °F
Humidity 22%
Rainfall 0.18 in
Snow Depth Not available.
7:14 AM 7:42 PM
Waning Crescent, 0% visible
METAR KYNG 271751Z 25008KT 10SM BKN027 BKN050 OVC220 16/09 A2996 RMK AO2 SLP144 60000 T01610094 10161 20122 58010
Pressure 29.96 in
Visibility 10.0 miles
Clouds Mostly Cloudy 2700 ft
Mostly Cloudy 5000 ft
Overcast 22000 ft
Dew Point 23 °F
Humidity 22%
Rainfall 0.18 in
Snow Depth Not available.
7:14 AM 7:42 PM
Waning Crescent, 0% visible
METAR KYNG 271751Z 25008KT 10SM BKN027 BKN050 OVC220 16/09 A2996 RMK AO2 SLP144 60000 T01610094 10161 20122 58010

Get Severe Weather Alerts

Thanks for signing up!

Be on the lookout for a verification email in your inbox.

You'll start receiving the daily forecast at 8 AM.

×

10-Day Weather Forecast

Almanac

Astronomy

Mar. 27, 2017 Rise Set
Actual Time
Civil Twilight
Nautical Twilight
Astronomical Twilight
Moon
Length of Visible Light
Length of Day
Tomorrow will be .
, % of the Moon is Illuminated

Today's Extremes

State Highs State Lows

Community

WunderPhotos

Upload Photos

1,962,540 photos uploaded!

WunderBlog® & News

Nearby

Air Quality

  Air Quality AQ Index Pollutant
Not available.

Snow Depth

Station Depth Elevation

Earthquake Activity

City Distance Mag. Time & Date
Minimum magnitude displayed is 2.5.

Earthquake Activity

City Distance Mag. Time & Date
Minimum magnitude displayed is 2.5.

Coastal Water Temperatures

Place Temperature

Stations

Nearby Weather Stations

Station Location Temp. Windchill Dew Point Humidity Wind Precip. Elev Updated Type
                   

Watches & Warnings

There are currently no watches in effect.